createdAt,value
2018-07-27T00:01:34.492Z,35.23
2018-07-27T00:04:03.189Z,35.16
2018-07-27T00:06:31.917Z,34.98
2018-07-27T00:09:00.597Z,35.41
2018-07-27T00:11:29.258Z,35.36
2018-07-27T00:13:57.792Z,34.59
2018-07-27T00:16:26.553Z,34.51
2018-07-27T00:18:55.199Z,35.65
2018-07-27T00:21:23.888Z,35.58
2018-07-27T00:23:52.468Z,35.55
2018-07-27T00:26:21.125Z,34.63
2018-07-27T00:28:49.843Z,34.66
2018-07-27T00:31:18.604Z,33.72
2018-07-27T00:33:47.299Z,33.46
2018-07-27T00:36:15.968Z,33.78
2018-07-27T00:38:44.595Z,34.14
2018-07-27T00:41:13.240Z,34.13
2018-07-27T00:43:42.155Z,34.45
2018-07-27T00:46:10.807Z,34.51
2018-07-27T00:48:39.449Z,34.26
2018-07-27T00:51:08.156Z,34.35
2018-07-27T00:53:36.943Z,35.40
2018-07-27T00:56:05.539Z,35.24
2018-07-27T00:58:34.298Z,35.18
2018-07-27T01:01:02.851Z,35.10
2018-07-27T01:03:31.569Z,35.47
2018-07-27T01:06:00.220Z,35.28
2018-07-27T01:08:28.880Z,34.91
2018-07-27T01:10:57.703Z,34.91
2018-07-27T01:13:26.373Z,35.03
2018-07-27T01:15:55.057Z,35.94
2018-07-27T01:18:24.482Z,36.07
2018-07-27T01:20:53.164Z,36.08
2018-07-27T01:23:23.071Z,36.45
2018-07-27T01:25:52.309Z,36.27
2018-07-27T01:28:21.716Z,36.76
2018-07-27T01:30:50.348Z,36.83
2018-07-27T01:33:18.990Z,37.16
2018-07-27T01:35:47.796Z,37.02
2018-07-27T01:38:16.562Z,36.71
2018-07-27T01:40:45.308Z,37.07
2018-07-27T01:43:14.005Z,37.01
2018-07-27T01:45:42.660Z,37.21
2018-07-27T01:48:11.376Z,36.81
2018-07-27T01:50:40.064Z,36.85
2018-07-27T01:53:08.821Z,36.84
2018-07-27T01:55:37.524Z,37.35
2018-07-27T01:58:06.244Z,37.62
2018-07-27T02:00:34.940Z,37.22
2018-07-27T02:03:03.724Z,37.37
2018-07-27T02:05:32.327Z,37.13
2018-07-27T02:08:01.086Z,37.50
2018-07-27T02:10:29.762Z,38.07
2018-07-27T02:12:58.378Z,37.62
2018-07-27T02:15:26.998Z,38.47
2018-07-27T02:17:55.622Z,38.50
2018-07-27T02:20:24.391Z,38.39
2018-07-27T02:22:53.035Z,37.75
2018-07-27T02:25:21.706Z,37.84
2018-07-27T02:27:50.393Z,37.91
2018-07-27T02:30:19.016Z,38.78
2018-07-27T02:32:47.752Z,37.86
2018-07-27T02:35:16.452Z,38.86
2018-07-27T02:37:45.070Z,38.28
2018-07-27T02:40:13.710Z,38.80
2018-07-27T02:42:42.402Z,38.11
2018-07-27T02:45:11.053Z,39.10
2018-07-27T02:47:39.694Z,38.46
2018-07-27T02:50:08.376Z,39.43
2018-07-27T02:52:37.000Z,38.54
2018-07-27T02:55:05.753Z,38.95
2018-07-27T02:57:34.399Z,39.49
2018-07-27T03:00:02.980Z,38.77
2018-07-27T03:02:31.640Z,38.93
2018-07-27T03:05:00.268Z,38.76
2018-07-27T03:07:28.906Z,39.71
2018-07-27T03:09:57.641Z,39.17
2018-07-27T03:12:26.246Z,40.00
2018-07-27T03:14:54.912Z,39.96
2018-07-27T03:17:23.501Z,39.66
2018-07-27T03:19:52.122Z,40.22
2018-07-27T03:22:20.829Z,40.11
2018-07-27T03:24:49.663Z,39.95
2018-07-27T03:27:18.323Z,39.14
2018-07-27T03:29:47.032Z,39.15
2018-07-27T03:32:15.705Z,40.08
2018-07-27T03:34:44.469Z,39.64
2018-07-27T03:37:13.239Z,39.65
2018-07-27T03:39:42.107Z,39.37
2018-07-27T03:42:10.762Z,39.76
2018-07-27T03:44:39.355Z,40.21
2018-07-27T03:47:08.203Z,40.00
2018-07-27T03:49:36.891Z,40.48
2018-07-27T03:52:05.521Z,39.57
2018-07-27T03:54:34.251Z,39.45
2018-07-27T03:57:03.122Z,40.36
2018-07-27T03:59:31.858Z,40.55
2018-07-27T04:02:00.526Z,40.52
2018-07-27T04:04:29.254Z,40.07
2018-07-27T04:06:57.939Z,40.69
2018-07-27T04:09:26.617Z,40.07
2018-07-27T04:11:55.266Z,40.71
2018-07-27T04:14:23.955Z,39.70
2018-07-27T04:16:52.572Z,40.60
2018-07-27T04:19:21.291Z,39.98
2018-07-27T04:21:49.913Z,39.54
2018-07-27T04:24:18.553Z,39.05
2018-07-27T04:26:47.135Z,39.27
2018-07-27T04:29:15.851Z,40.30
2018-07-27T04:31:44.599Z,39.50
2018-07-27T04:34:13.354Z,39.99
2018-07-27T04:36:42.838Z,40.06
2018-07-27T04:39:12.075Z,39.73
2018-07-27T04:41:40.716Z,40.66
2018-07-27T04:44:09.501Z,40.47
2018-07-27T04:46:38.100Z,39.60
2018-07-27T04:49:07.629Z,41.02
2018-07-27T04:51:36.227Z,40.79
2018-07-27T04:54:05.050Z,41.12
2018-07-27T04:56:33.821Z,40.43
2018-07-27T04:59:02.639Z,40.40
2018-07-27T05:01:31.360Z,41.54
2018-07-27T05:03:59.955Z,41.07
2018-07-27T05:06:28.679Z,40.29
2018-07-27T05:09:02.491Z,40.38
2018-07-27T05:11:31.229Z,40.39
2018-07-27T05:13:59.980Z,41.19
2018-07-27T05:16:28.768Z,40.38
2018-07-27T05:18:57.451Z,39.40
2018-07-27T05:21:26.056Z,39.08
2018-07-27T05:23:54.661Z,39.87
2018-07-27T05:26:23.276Z,39.83
2018-07-27T05:28:51.815Z,39.64
2018-07-27T05:31:20.399Z,39.10
2018-07-27T05:33:49.066Z,39.68
2018-07-27T05:36:17.797Z,39.27
2018-07-27T05:38:46.408Z,40.13
2018-07-27T05:41:14.988Z,40.63
2018-07-27T05:43:43.616Z,39.04
2018-07-27T05:46:12.204Z,38.93
2018-07-27T05:48:41.176Z,38.36
2018-07-27T05:51:09.801Z,37.27
2018-07-27T05:53:38.539Z,37.85
2018-07-27T05:56:07.173Z,36.80
2018-07-27T05:58:36.015Z,37.02
2018-07-27T06:01:05.222Z,35.04
2018-07-27T06:03:34.255Z,34.56
2018-07-27T06:06:03.097Z,34.02
2018-07-27T06:08:31.908Z,33.33
2018-07-27T06:11:00.660Z,31.80
2018-07-27T06:13:29.313Z,32.22
2018-07-27T06:15:58.124Z,31.70
2018-07-27T06:18:26.826Z,29.79
2018-07-27T06:20:55.574Z,30.58
2018-07-27T06:23:24.239Z,30.67
2018-07-27T06:25:52.992Z,29.67
2018-07-27T06:28:21.942Z,29.27
2018-07-27T06:30:50.917Z,29.15
2018-07-27T06:33:19.818Z,27.86
2018-07-27T06:35:48.558Z,26.95
2018-07-27T06:38:17.309Z,26.59
2018-07-27T06:40:46.286Z,27.45
2018-07-27T06:43:15.135Z,26.18
2018-07-27T06:45:47.481Z,25.76
2018-07-27T06:48:18.979Z,25.52
2018-07-27T06:50:49.811Z,24.95
2018-07-27T06:53:19.458Z,24.18
2018-07-27T06:55:48.589Z,23.52
2018-07-27T07:00:58.575Z,23.47
2018-07-27T07:03:27.901Z,23.50
2018-07-27T07:05:57.156Z,22.07
2018-07-27T07:08:26.122Z,22.36
2018-07-27T07:10:55.471Z,21.70
2018-07-27T07:13:26.684Z,19.91
2018-07-27T07:15:55.736Z,19.46
2018-07-27T07:18:24.769Z,19.23
2018-07-27T07:20:56.461Z,18.02
2018-07-27T07:23:28.369Z,18.05
2018-07-27T07:25:57.905Z,17.65
2018-07-27T07:28:26.160Z,18.10
2018-07-27T07:30:54.839Z,17.77
2018-07-27T07:33:23.603Z,17.58
2018-07-27T07:35:52.645Z,16.85
2018-07-27T07:38:21.359Z,17.08
2018-07-27T07:40:49.949Z,16.55
2018-07-27T07:43:18.538Z,16.62
2018-07-27T07:45:47.246Z,16.58
2018-07-27T07:48:15.902Z,16.18
2018-07-27T07:50:44.683Z,16.69
2018-07-27T07:53:13.288Z,16.73
2018-07-27T07:55:41.917Z,16.91
2018-07-27T07:58:10.596Z,15.24
2018-07-27T08:00:39.187Z,14.89
2018-07-27T08:03:07.955Z,14.87
2018-07-27T08:05:36.611Z,13.76
2018-07-27T08:08:05.319Z,13.72
2018-07-27T08:10:33.863Z,13.99
2018-07-27T08:13:02.567Z,14.34
2018-07-27T08:15:31.352Z,14.49
2018-07-27T08:18:00.376Z,14.24
2018-07-27T08:20:29.106Z,14.48
2018-07-27T08:22:57.842Z,13.66
2018-07-27T08:25:29.805Z,13.61
2018-07-27T08:28:10.273Z,13.05
2018-07-27T08:30:39.022Z,13.39
2018-07-27T08:33:08.254Z,13.57
2018-07-27T08:35:37.876Z,13.51
2018-07-27T08:38:06.552Z,12.76
2018-07-27T08:40:35.204Z,12.71
2018-07-27T08:43:04.502Z,11.88
2018-07-27T08:45:33.580Z,12.20
2018-07-27T08:48:02.295Z,12.36
2018-07-27T08:50:31.974Z,12.57
2018-07-27T08:53:00.824Z,11.93
2018-07-27T08:55:29.505Z,11.32
2018-07-27T08:57:58.205Z,11.89
2018-07-27T09:00:39.034Z,11.52
2018-07-27T09:03:07.736Z,10.91
2018-07-27T09:05:36.420Z,11.18
2018-07-27T09:08:05.154Z,10.62
2018-07-27T09:10:34.797Z,10.95
2018-07-27T09:13:03.529Z,10.84
2018-07-27T09:15:32.455Z,10.29
2018-07-27T09:18:01.337Z,10.23
2018-07-27T09:20:30.084Z,9.96
2018-07-27T09:22:58.975Z,9.49
2018-07-27T09:25:28.437Z,10.04
2018-07-27T09:27:57.685Z,9.33
2018-07-27T09:30:26.700Z,9.80
2018-07-27T09:32:55.591Z,10.09
2018-07-27T09:35:24.295Z,10.24
2018-07-27T09:37:53.799Z,9.54
2018-07-27T09:40:23.318Z,9.54
2018-07-27T09:42:52.283Z,8.66
2018-07-27T09:45:21.190Z,9.05
2018-07-27T09:47:50.250Z,8.27
2018-07-27T09:50:19.056Z,8.11
2018-07-27T09:52:47.812Z,7.95
2018-07-27T09:55:16.512Z,8.21
2018-07-27T09:57:45.167Z,7.41
2018-07-27T10:00:18.813Z,7.25
2018-07-27T10:02:47.652Z,7.61
2018-07-27T10:05:16.481Z,6.30
2018-07-27T10:07:45.180Z,6.65
2018-07-27T10:10:13.854Z,7.28
2018-07-27T10:12:42.814Z,7.01
2018-07-27T10:15:18.170Z,6.82
2018-07-27T10:17:48.287Z,6.81
2018-07-27T10:20:17.319Z,5.97
2018-07-27T10:22:46.053Z,7.04
2018-07-27T10:25:14.851Z,6.33
2018-07-27T10:27:43.548Z,5.62
2018-07-27T10:30:12.234Z,5.64
2018-07-27T10:32:40.995Z,5.48
2018-07-27T10:35:09.697Z,5.66
2018-07-27T10:37:38.401Z,5.16
2018-07-27T10:40:07.958Z,5.45
2018-07-27T10:42:36.550Z,5.91
2018-07-27T10:45:05.395Z,5.99
2018-07-27T10:47:34.777Z,5.96
2018-07-27T10:50:06.562Z,5.63
2018-07-27T10:52:35.280Z,5.71
2018-07-27T10:55:04.101Z,5.66
2018-07-27T10:57:32.752Z,5.52
2018-07-27T11:00:01.301Z,5.19
2018-07-27T11:02:30.045Z,5.28
2018-07-27T11:04:58.735Z,5.51
2018-07-27T11:07:27.398Z,5.40
2018-07-27T11:09:56.023Z,5.04
2018-07-27T11:12:24.628Z,5.48
2018-07-27T11:14:53.362Z,5.16
2018-07-27T11:17:22.005Z,5.12
2018-07-27T11:19:51.052Z,4.92
2018-07-27T11:22:19.726Z,4.65
2018-07-27T11:24:48.585Z,5.39
2018-07-27T11:27:17.272Z,5.69
2018-07-27T11:29:46.157Z,5.10
2018-07-27T11:32:14.805Z,6.12
2018-07-27T11:34:43.361Z,5.88
2018-07-27T11:37:12.026Z,5.83
2018-07-27T11:39:40.632Z,7.27
2018-07-27T11:42:09.333Z,7.71
2018-07-27T11:44:37.945Z,8.38
2018-07-27T11:47:06.744Z,8.75
2018-07-27T11:49:35.375Z,9.80
2018-07-27T11:52:04.188Z,10.07
2018-07-27T11:54:32.745Z,10.33
2018-07-27T11:57:01.414Z,11.24
2018-07-27T11:59:30.002Z,10.90
2018-07-27T12:01:58.656Z,11.47
2018-07-27T12:04:27.223Z,11.47
2018-07-27T12:06:55.922Z,11.42
2018-07-27T12:09:24.506Z,12.19
2018-07-27T12:11:53.242Z,12.10
2018-07-27T12:14:21.940Z,12.50
2018-07-27T12:16:50.589Z,12.72
2018-07-27T12:19:19.247Z,12.62
2018-07-27T12:21:48.364Z,13.43
2018-07-27T12:24:17.733Z,13.05
2018-07-27T12:26:46.334Z,13.58
2018-07-27T12:29:15.123Z,12.78
2018-07-27T12:31:43.833Z,12.81
2018-07-27T12:34:12.566Z,13.14
2018-07-27T12:36:41.200Z,12.96
2018-07-27T12:39:11.072Z,12.85
2018-07-27T12:41:40.944Z,13.12
2018-07-27T12:44:09.727Z,12.99
2018-07-27T12:46:38.971Z,13.04
2018-07-27T12:49:07.596Z,12.85
2018-07-27T12:51:36.259Z,13.37
2018-07-27T12:54:04.880Z,12.83
2018-07-27T12:56:33.354Z,12.83
2018-07-27T12:59:02.080Z,13.55
2018-07-27T13:01:30.695Z,13.18
2018-07-27T13:03:59.359Z,13.32
2018-07-27T13:06:28.085Z,13.85
2018-07-27T13:08:56.825Z,13.52
2018-07-27T13:11:25.545Z,13.49
2018-07-27T13:13:55.054Z,13.69
2018-07-27T13:16:24.426Z,14.38
2018-07-27T13:18:53.179Z,13.59
2018-07-27T13:21:21.753Z,13.29
2018-07-27T13:23:56.824Z,13.47
2018-07-27T13:26:25.524Z,13.48
2018-07-27T13:28:55.669Z,13.17
2018-07-27T13:31:44.943Z,13.35
2018-07-27T13:34:40.066Z,13.17
2018-07-27T13:37:08.822Z,13.44
2018-07-27T13:39:38.129Z,13.06
2018-07-27T13:42:07.682Z,12.95
2018-07-27T13:44:38.187Z,13.25
2018-07-27T13:47:07.423Z,13.45
2018-07-27T13:49:36.137Z,12.96
2018-07-27T13:52:05.303Z,12.88
2018-07-27T13:54:35.369Z,13.18
2018-07-27T13:57:04.083Z,12.86
2018-07-27T13:59:32.751Z,12.82
2018-07-27T14:02:01.696Z,13.41
2018-07-27T14:04:30.289Z,12.94
2018-07-27T14:06:59.949Z,13.23
2018-07-27T14:09:29.583Z,13.16
2018-07-27T14:11:59.116Z,13.88
2018-07-27T14:14:27.755Z,13.33
2018-07-27T14:16:56.899Z,13.14
2018-07-27T14:19:26.522Z,13.15
2018-07-27T14:21:55.293Z,12.93
2018-07-27T14:24:24.229Z,12.70
2018-07-27T14:26:52.843Z,12.70
2018-07-27T14:29:21.549Z,12.85
2018-07-27T14:31:50.540Z,12.92
2018-07-27T14:34:19.054Z,12.92
2018-07-27T14:36:47.730Z,13.06
2018-07-27T14:39:16.914Z,13.51
2018-07-27T14:41:45.747Z,13.32
2018-07-27T14:44:14.368Z,13.23
2018-07-27T14:46:43.384Z,12.98
2018-07-27T14:49:15.171Z,13.04
2018-07-27T14:51:44.036Z,13.34
2018-07-27T14:54:13.951Z,13.16
2018-07-27T14:56:43.131Z,13.17
2018-07-27T14:59:12.288Z,14.07
2018-07-27T15:01:41.316Z,13.47
2018-07-27T15:04:10.728Z,13.35
2018-07-27T15:06:39.493Z,13.74
2018-07-27T15:09:09.978Z,13.78
2018-07-27T15:11:38.608Z,14.07
2018-07-27T15:14:07.454Z,13.27
2018-07-27T15:16:36.300Z,14.21
2018-07-27T15:19:04.866Z,13.95
2018-07-27T15:21:33.758Z,14.05
2018-07-27T15:24:02.549Z,14.10
2018-07-27T15:26:31.389Z,13.99
2018-07-27T15:29:00.168Z,13.98
2018-07-27T15:31:29.278Z,13.76
2018-07-27T15:33:57.931Z,13.65
2018-07-27T15:36:26.833Z,13.22
2018-07-27T15:38:55.888Z,13.54
2018-07-27T15:41:24.713Z,13.81
2018-07-27T15:43:54.412Z,14.29
2018-07-27T15:46:23.040Z,13.91
2018-07-27T15:48:51.858Z,13.17
2018-07-27T15:51:20.637Z,13.13
2018-07-27T15:53:49.741Z,13.34
2018-07-27T15:56:18.695Z,13.21
2018-07-27T15:58:47.519Z,13.29
2018-07-27T16:01:16.515Z,13.70
2018-07-27T16:03:45.300Z,13.37
2018-07-27T16:06:14.706Z,13.19
2018-07-27T16:08:43.826Z,13.72
2018-07-27T16:11:12.562Z,13.79
2018-07-27T16:13:41.429Z,13.74
2018-07-27T16:16:10.308Z,13.68
2018-07-27T16:18:39.253Z,13.66
2018-07-27T16:21:08.907Z,13.91
2018-07-27T16:23:38.266Z,14.18
2018-07-27T16:26:08.759Z,14.07
2018-07-27T16:28:37.903Z,14.07
2018-07-27T16:31:07.177Z,14.78
2018-07-27T16:33:36.599Z,14.46
2018-07-27T16:36:07.070Z,14.79
2018-07-27T16:38:37.407Z,14.43
2018-07-27T16:41:07.449Z,14.59
2018-07-27T16:43:36.820Z,13.92
2018-07-27T16:46:05.649Z,14.23
2018-07-27T16:48:34.838Z,14.87
2018-07-27T16:51:04.224Z,14.76
2018-07-27T16:53:33.071Z,14.08
2018-07-27T16:56:01.996Z,14.41
2018-07-27T16:58:30.675Z,14.09
2018-07-27T17:00:59.568Z,14.98
2018-07-27T17:03:28.572Z,14.17
2018-07-27T17:05:57.630Z,14.51
2018-07-27T17:08:26.767Z,14.37
2018-07-27T17:10:55.761Z,14.13
2018-07-27T17:13:24.864Z,14.97
2018-07-27T17:15:53.902Z,14.16
2018-07-27T17:18:23.109Z,14.07
2018-07-27T17:20:52.020Z,14.97
2018-07-27T17:23:21.208Z,15.07
2018-07-27T17:25:50.461Z,15.23
2018-07-27T17:28:19.551Z,14.98
2018-07-27T17:30:48.721Z,16.01
2018-07-27T17:33:17.831Z,15.99
2018-07-27T17:35:46.604Z,15.86
2018-07-27T17:38:15.514Z,16.45
2018-07-27T17:40:44.229Z,16.54
2018-07-27T17:43:13.143Z,16.12
2018-07-27T17:45:41.849Z,17.11
2018-07-27T17:48:10.669Z,16.49
2018-07-27T17:50:39.574Z,16.85
2018-07-27T17:53:08.327Z,16.89
2018-07-27T17:55:37.051Z,17.18
2018-07-27T17:58:05.775Z,17.26
2018-07-27T18:00:34.570Z,17.28
2018-07-27T18:03:03.348Z,18.15
2018-07-27T18:05:31.953Z,18.25
2018-07-27T18:08:01.001Z,17.81
2018-07-27T18:10:30.025Z,18.57
2018-07-27T18:12:58.797Z,17.84
2018-07-27T18:15:27.724Z,18.60
2018-07-27T18:17:57.915Z,18.13
2018-07-27T18:20:27.759Z,18.38
2018-07-27T18:22:56.488Z,18.09
2018-07-27T18:25:26.093Z,18.74
2018-07-27T18:27:55.246Z,18.27
2018-07-27T18:30:23.973Z,19.15
2018-07-27T18:32:52.731Z,18.28
2018-07-27T18:35:21.838Z,19.20
2018-07-27T18:37:50.703Z,19.44
2018-07-27T18:40:19.432Z,18.90
2018-07-27T18:42:48.479Z,18.72
2018-07-27T18:45:17.621Z,18.79
2018-07-27T18:47:46.704Z,19.69
2018-07-27T18:50:15.585Z,19.84
2018-07-27T18:52:44.355Z,19.94
2018-07-27T18:55:13.072Z,19.92
2018-07-27T18:57:43.747Z,19.62
2018-07-27T19:00:13.008Z,19.81
2018-07-27T19:02:42.036Z,19.74
2018-07-27T19:05:10.922Z,19.91
2018-07-27T19:07:39.743Z,19.86
2018-07-27T19:10:09.109Z,20.16
2018-07-27T19:12:38.060Z,20.08
2018-07-27T19:15:07.855Z,21.22
2018-07-27T19:17:36.749Z,20.92
2018-07-27T19:20:05.653Z,20.66
2018-07-27T19:22:34.391Z,21.56
2018-07-27T19:25:03.052Z,21.80
2018-07-27T19:27:31.854Z,21.29
2018-07-27T19:30:00.553Z,21.69
2018-07-27T19:32:29.278Z,21.91
2018-07-27T19:34:58.109Z,22.69
2018-07-27T19:37:26.845Z,23.05
2018-07-27T19:39:55.638Z,23.23
2018-07-27T19:42:24.273Z,23.45
2018-07-27T19:44:53.323Z,23.05
2018-07-27T19:47:22.130Z,23.25
2018-07-27T19:49:51.281Z,23.32
2018-07-27T19:52:20.076Z,23.11
2018-07-27T19:54:48.924Z,23.48
2018-07-27T19:57:17.732Z,24.19
2018-07-27T19:59:46.753Z,24.38
2018-07-27T20:02:16.092Z,24.65
2018-07-27T20:04:44.971Z,25.19
2018-07-27T20:07:13.612Z,25.24
2018-07-27T20:09:42.359Z,25.26
2018-07-27T20:12:10.994Z,25.69
2018-07-27T20:14:39.633Z,25.90
2018-07-27T20:17:08.280Z,26.22
2018-07-27T20:19:37.007Z,25.97
2018-07-27T20:22:05.754Z,26.50
2018-07-27T20:24:34.462Z,26.41
2018-07-27T20:27:03.274Z,26.72
2018-07-27T20:29:32.038Z,26.79
2018-07-27T20:32:01.550Z,27.11
2018-07-27T20:34:30.243Z,27.18
2018-07-27T20:36:58.870Z,27.15
2018-07-27T20:39:27.470Z,26.97
2018-07-27T20:41:56.358Z,27.12
2018-07-27T20:44:25.175Z,27.01
2018-07-27T20:46:53.777Z,27.14
2018-07-27T20:49:22.410Z,26.38
2018-07-27T20:51:51.164Z,26.96
2018-07-27T20:54:19.830Z,27.70
2018-07-27T20:56:48.566Z,26.70
2018-07-27T20:59:17.283Z,26.42
2018-07-27T21:01:46.048Z,26.69
2018-07-27T21:04:14.798Z,26.49
2018-07-27T21:06:43.480Z,26.62
2018-07-27T21:09:12.775Z,26.94
2018-07-27T21:11:42.047Z,26.05
2018-07-27T21:14:10.801Z,27.58
2018-07-27T21:16:39.453Z,26.65
2018-07-27T21:19:08.257Z,26.76
2018-07-27T21:21:36.993Z,26.41
2018-07-27T21:24:05.682Z,25.86
2018-07-27T21:26:34.502Z,26.63
2018-07-27T21:29:03.375Z,25.96
2018-07-27T21:31:32.137Z,26.12
2018-07-27T21:34:00.802Z,25.84
2018-07-27T21:36:29.569Z,24.82
2018-07-27T21:38:58.278Z,25.03
2018-07-27T21:41:27.024Z,25.33
2018-07-27T21:43:56.055Z,25.07
2018-07-27T21:46:25.002Z,25.44
2018-07-27T21:48:53.946Z,26.30
2018-07-27T21:51:22.837Z,26.41
2018-07-27T21:53:51.837Z,26.52
2018-07-27T21:56:20.916Z,25.98
2018-07-27T21:58:49.740Z,25.43
2018-07-27T22:01:18.527Z,26.68
2018-07-27T22:03:47.178Z,25.66
2018-07-27T22:06:15.947Z,26.07
2018-07-27T22:08:44.670Z,26.43
2018-07-27T22:11:13.311Z,25.88
2018-07-27T22:13:42.130Z,26.22
2018-07-27T22:16:10.858Z,26.11
2018-07-27T22:18:39.600Z,26.27
2018-07-27T22:21:08.360Z,26.13
2018-07-27T22:23:37.135Z,27.20
2018-07-27T22:26:05.900Z,27.41
2018-07-27T22:28:34.657Z,26.72
2018-07-27T22:31:03.436Z,26.71
2018-07-27T22:33:32.337Z,26.54
2018-07-27T22:36:01.134Z,27.44
2018-07-27T22:38:29.939Z,26.70
2018-07-27T22:40:58.870Z,26.80
2018-07-27T22:43:27.735Z,26.81
2018-07-27T22:45:56.468Z,28.09
2018-07-27T22:48:25.231Z,27.71
2018-07-27T22:50:53.952Z,27.18
2018-07-27T22:53:22.743Z,27.86
2018-07-27T22:55:51.624Z,27.31
2018-07-27T22:58:20.472Z,27.34
2018-07-27T23:00:49.207Z,28.68
2018-07-27T23:03:18.192Z,28.03
2018-07-27T23:05:47.056Z,27.90
2018-07-27T23:08:15.797Z,28.03
2018-07-27T23:10:44.606Z,28.06
2018-07-27T23:13:13.329Z,28.39
2018-07-27T23:15:42.100Z,28.49
2018-07-27T23:18:10.767Z,28.25
2018-07-27T23:20:39.479Z,28.87
2018-07-27T23:23:08.167Z,28.83
2018-07-27T23:25:36.822Z,28.64
2018-07-27T23:28:05.629Z,29.27
2018-07-27T23:30:34.467Z,29.43
2018-07-27T23:33:03.208Z,28.92
2018-07-27T23:35:31.931Z,29.27
2018-07-27T23:38:00.641Z,30.01
2018-07-27T23:40:29.322Z,29.39
2018-07-27T23:42:58.110Z,30.22
2018-07-27T23:45:26.719Z,29.60
2018-07-27T23:47:55.373Z,30.51
2018-07-27T23:50:24.161Z,30.29
2018-07-27T23:52:54.897Z,29.57
2018-07-27T23:55:24.193Z,30.27
2018-07-27T23:57:52.987Z,30.36
